Time;durP1;ratioP1;P1;durP2;ratioP2;P2;SDS_P1;SDS_P2;PMS_P1;PMS_P2;Temp;Humidity;BMP_temperature;BMP_pressure;BME280_temperature;BME280_humidity;BME280_pressure;Samples;Min_cycle;Max_cycle;Signal;HPM_P1;HPM_P2
2022/05/02 00:01:28;;;;;;;8.80;6.75;;;;;;;10.79;70.55;100546.78;2885848;80;21705;-81
2022/05/02 00:05:30;;;;;;;9.88;8.13;;;;;;;10.67;70.51;100545.93;2917855;80;21579;-81
2022/05/02 00:09:31;;;;;;;14.78;8.50;;;;;;;10.55;70.62;100544.22;2907029;81;21490;-81
2022/05/02 00:13:32;;;;;;;10.38;7.90;;;;;;;10.41;70.77;100538.64;2896039;81;21068;-81
2022/05/02 00:21:53;;;;;;;9.15;7.10;;;;;;;10.27;71.92;100541.84;2796729;82;21028;-81
2022/05/02 00:25:54;;;;;;;12.45;7.47;;;;;;;10.19;72.41;100528.77;2899474;81;21083;-81
2022/05/02 00:29:56;;;;;;;10.13;7.50;;;;;;;10.11;73.16;100527.55;2889983;82;21064;-81
2022/05/02 00:33:57;;;;;;;9.18;6.62;;;;;;;10.05;73.04;100525.84;2891437;82;21044;-81
2022/05/02 00:37:58;;;;;;;11.28;7.47;;;;;;;10.01;73.28;100522.55;2823334;81;20995;-81
2022/05/02 00:41:59;;;;;;;10.32;8.25;;;;;;;9.98;72.91;100524.13;2883702;81;21015;-81
2022/05/02 00:46:00;;;;;;;8.55;7.65;;;;;;;9.94;72.94;100522.67;2897472;81;21019;-81
2022/05/02 00:50:04;;;;;;;11.20;7.28;;;;;;;9.80;73.33;100519.23;2903736;81;21042;-81
2022/05/02 00:54:07;;;;;;;9.00;7.10;;;;;;;9.74;73.39;100520.20;2844315;81;21055;-81
2022/05/02 00:58:09;;;;;;;7.28;6.58;;;;;;;9.73;74.07;100518.00;2851011;81;21489;-81
2022/05/02 01:02:13;;;;;;;10.55;7.70;;;;;;;9.72;74.88;100516.31;2903216;81;21023;-81
2022/05/02 01:10:36;;;;;;;10.60;6.55;;;;;;;9.74;74.38;100518.87;2864260;81;21073;-81
2022/05/02 01:14:38;;;;;;;8.35;6.15;;;;;;;9.71;73.97;100517.28;2890252;80;20956;-81
2022/05/02 01:18:41;;;;;;;7.62;6.67;;;;;;;9.60;73.64;100524.72;2923101;81;21600;-81
2022/05/02 01:22:45;;;;;;;10.72;7.83;;;;;;;9.29;74.31;100525.16;2923142;80;21035;-81
2022/05/02 01:26:46;;;;;;;10.53;8.40;;;;;;;9.13;74.75;100524.08;2920582;81;21308;-81
2022/05/02 01:30:47;;;;;;;8.73;7.03;;;;;;;8.90;77.18;100519.11;2894851;81;21029;-81
2022/05/02 01:34:49;;;;;;;8.45;5.92;;;;;;;8.89;76.95;100518.75;2848340;81;21062;-81
2022/05/02 01:38:50;;;;;;;9.58;7.45;;;;;;;8.86;76.23;100521.63;2902617;81;21026;-81
2022/05/02 01:42:51;;;;;;;10.18;6.87;;;;;;;8.90;76.72;100533.70;2907107;80;21031;-81
2022/05/02 01:46:53;;;;;;;9.38;8.38;;;;;;;8.97;76.99;100524.84;2918019;81;21088;-81
2022/05/02 01:50:55;;;;;;;11.15;7.17;;;;;;;9.02;77.42;100523.16;2891034;79;21598;-81
2022/05/02 01:54:56;;;;;;;10.98;8.00;;;;;;;9.05;76.74;100524.29;2900992;80;21532;-81
2022/05/02 01:58:57;;;;;;;15.03;8.30;;;;;;;9.10;76.94;100522.14;2915572;80;21387;-81
2022/05/02 02:02:58;;;;;;;9.45;7.67;;;;;;;9.17;76.90;100530.52;2922308;81;21015;-81
2022/05/02 02:07:00;;;;;;;10.95;9.20;;;;;;;9.14;76.57;100530.25;2899282;80;21063;-81
2022/05/02 02:11:06;;;;;;;11.65;8.45;;;;;;;9.14;77.11;100523.61;2931706;81;21053;-81
2022/05/02 02:15:09;;;;;;;12.95;9.88;;;;;;;9.02;77.19;100531.12;2929244;80;20976;-81
2022/05/02 02:19:10;;;;;;;10.98;8.85;;;;;;;8.94;77.71;100529.87;2926903;80;21002;-81
2022/05/02 02:23:14;;;;;;;12.18;8.45;;;;;;;8.97;78.15;100526.16;2895088;81;21046;-80
2022/05/02 02:27:15;;;;;;;13.60;10.35;;;;;;;8.86;78.67;100521.63;2919627;80;21008;-81
2022/05/02 02:31:16;;;;;;;13.70;9.78;;;;;;;8.91;78.35;100528.77;2924414;79;21011;-81
2022/05/02 02:35:20;;;;;;;14.35;9.70;;;;;;;8.99;78.03;100521.09;2904979;80;21054;-80
2022/05/02 02:39:21;;;;;;;15.18;11.35;;;;;;;8.90;78.21;100526.20;2936972;80;21613;-81
2022/05/02 02:43:22;;;;;;;11.30;10.13;;;;;;;8.90;78.41;100524.42;2944886;80;22267;-81
2022/05/02 02:47:23;;;;;;;12.25;8.68;;;;;;;8.94;78.61;100513.95;2914735;79;21722;-82
2022/05/02 02:51:24;;;;;;;14.87;8.58;;;;;;;8.79;77.95;100509.73;2883533;80;21075;-81
2022/05/02 02:55:25;;;;;;;11.63;10.25;;;;;;;8.54;78.84;100514.12;2796827;81;20995;-80
2022/05/02 02:59:26;;;;;;;18.48;10.58;;;;;;;8.33;79.52;100516.41;2943417;80;21003;-81
2022/05/02 03:03:28;;;;;;;10.80;9.00;;;;;;;8.33;80.25;100522.57;2921622;80;21046;-83
2022/05/02 03:07:29;;;;;;;17.37;10.43;;;;;;;8.35;79.30;100521.98;2881797;81;21071;-82
2022/05/02 03:11:31;;;;;;;10.70;8.63;;;;;;;8.38;78.17;100520.44;2888394;80;21059;-83
2022/05/02 03:15:33;;;;;;;15.03;9.88;;;;;;;8.15;78.57;100517.58;2910322;79;21011;-90
2022/05/02 03:19:34;;;;;;;12.00;8.95;;;;;;;8.02;79.21;100521.16;2885018;80;21101;-83
2022/05/02 03:23:35;;;;;;;8.83;7.45;;;;;;;8.03;79.33;100521.53;2898691;80;21048;-83
2022/05/02 03:27:36;;;;;;;11.90;9.75;;;;;;;7.98;78.56;100521.38;2875982;81;21055;-83
2022/05/02 03:31:37;;;;;;;13.80;10.75;;;;;;;8.05;78.23;100514.33;2909005;80;21082;-82
2022/05/02 03:35:39;;;;;;;13.28;10.58;;;;;;;8.11;77.70;100515.23;2908101;80;21015;-83
2022/05/02 03:39:40;;;;;;;13.70;9.23;;;;;;;8.18;77.76;100511.23;2884236;81;21053;-83
2022/05/02 03:43:42;;;;;;;23.98;10.20;;;;;;;8.14;78.65;100510.58;2908912;81;21027;-83
2022/05/02 03:47:43;;;;;;;26.93;9.18;;;;;;;8.05;79.50;100507.21;2879849;81;21501;-82
2022/05/02 03:51:44;;;;;;;13.50;10.82;;;;;;;8.03;80.12;100499.02;2908734;81;20998;-83
2022/05/02 03:55:45;;;;;;;19.37;11.20;;;;;;;8.04;80.59;100502.88;2903430;81;21006;-82
2022/05/02 03:59:47;;;;;;;14.93;11.12;;;;;;;8.10;81.29;100506.45;2908295;81;21115;-82
2022/05/02 04:03:48;;;;;;;12.10;10.05;;;;;;;8.17;81.67;100506.88;2903645;81;21036;-82
2022/05/02 04:07:49;;;;;;;14.10;10.05;;;;;;;8.35;82.98;100514.50;2909412;81;21043;-82
2022/05/02 04:11:50;;;;;;;12.33;9.88;;;;;;;8.98;82.97;100513.27;2909351;81;21087;-83
2022/05/02 04:15:51;;;;;;;11.10;9.88;;;;;;;9.67;80.70;100518.47;2900187;81;21614;-82
2022/05/02 04:19:53;;;;;;;12.10;9.63;;;;;;;10.25;79.22;100526.99;2881061;81;21121;-82
2022/05/02 04:23:54;;;;;;;12.05;9.65;;;;;;;10.27;76.06;100520.56;2817899;80;20992;-82
2022/05/02 04:27:55;;;;;;;17.15;10.55;;;;;;;10.24;76.79;100526.13;2916894;80;21085;-82
2022/05/02 04:31:56;;;;;;;12.65;9.63;;;;;;;10.18;76.61;100529.73;2913010;80;21004;-83
2022/05/02 04:35:57;;;;;;;13.05;10.55;;;;;;;9.88;76.61;100529.28;2912814;80;21098;-83
2022/05/02 04:39:58;;;;;;;20.50;16.65;;;;;;;9.74;77.27;100530.33;2901495;79;21078;-81
2022/05/02 04:43:59;;;;;;;16.00;10.30;;;;;;;9.75;78.57;100530.69;2898999;80;21036;-83
2022/05/02 04:48:00;;;;;;;13.85;9.75;;;;;;;9.86;79.18;100529.89;2859452;80;21523;-83
2022/05/02 04:52:02;;;;;;;17.82;9.38;;;;;;;10.05;78.71;100536.00;2921463;80;21043;-83
2022/05/02 04:56:04;;;;;;;12.70;10.70;;;;;;;10.24;78.54;100534.60;2894547;81;21107;-82
2022/05/02 05:00:06;;;;;;;13.18;10.45;;;;;;;10.68;78.95;100535.65;2894787;80;21330;-83
2022/05/02 05:04:08;;;;;;;11.12;10.00;;;;;;;11.46;77.49;100529.50;2919393;80;21015;-82
2022/05/02 05:08:09;;;;;;;13.85;11.70;;;;;;;11.86;74.80;100526.67;2889543;81;21015;-83
2022/05/02 05:12:34;;;;;;;13.25;11.25;;;;;;;12.34;74.07;100526.68;2912549;80;21488;-82
2022/05/02 05:16:56;;;;;;;14.90;10.72;;;;;;;12.71;72.58;100532.02;2877525;81;21020;-82
2022/05/02 05:21:27;;;;;;;13.28;9.88;;;;;;;13.18;72.33;100531.47;2902584;81;21047;-83
2022/05/02 05:26:07;;;;;;;10.95;8.75;;;;;;;13.67;69.63;100529.38;2909313;81;21042;-83
2022/05/02 05:30:10;;;;;;;10.75;9.43;;;;;;;14.09;68.96;100526.91;2903916;81;21064;-83
2022/05/02 05:34:47;;;;;;;13.72;9.23;;;;;;;14.30;68.03;100533.40;2827681;81;21063;-81
2022/05/02 05:39:05;;;;;;;12.82;9.75;;;;;;;14.42;66.73;100536.27;2909001;81;21080;-81
2022/05/02 05:43:36;;;;;;;12.30;9.65;;;;;;;14.61;66.69;100534.52;2803079;82;21055;-81
2022/05/02 05:48:16;;;;;;;14.50;10.18;;;;;;;15.05;66.38;100541.13;2786187;84;21117;-81
2022/05/02 05:52:46;;;;;;;20.08;11.28;;;;;;;15.50;65.52;100538.11;2802437;84;21095;-81
2022/05/02 05:57:22;;;;;;;15.35;10.70;;;;;;;16.13;62.68;100526.47;2758105;84;21030;-81
2022/05/02 06:01:48;;;;;;;15.90;11.90;;;;;;;16.71;61.96;100532.69;2804853;84;21039;-81
2022/05/02 06:05:49;;;;;;;14.75;10.93;;;;;;;16.94;60.93;100532.11;2735525;84;21222;-81
2022/05/02 06:09:52;;;;;;;15.65;11.20;;;;;;;17.19;60.97;100530.39;2752661;84;21081;-81
2022/05/02 06:13:57;;;;;;;16.67;11.03;;;;;;;17.38;58.95;100532.45;2744706;86;21031;-81
2022/05/02 06:22:20;;;;;;;21.42;10.78;;;;;;;17.92;57.68;100524.45;2775468;83;21030;-81
2022/05/02 06:26:23;;;;;;;17.27;11.70;;;;;;;18.16;57.53;100526.82;2906467;81;21084;-83
2022/05/02 06:30:27;;;;;;;14.55;9.65;;;;;;;18.48;56.52;100523.23;2919920;80;21004;-81
2022/05/02 06:34:30;;;;;;;14.23;9.85;;;;;;;18.82;56.28;100531.55;2908751;80;21083;-78
2022/05/02 06:39:10;;;;;;;14.00;10.82;;;;;;;19.02;56.11;100535.20;2909719;80;21022;-80
2022/05/02 06:43:35;;;;;;;20.68;13.80;;;;;;;19.46;54.17;100533.80;2882289;81;21047;-82
2022/05/02 06:47:57;;;;;;;18.57;11.53;;;;;;;19.91;53.23;100529.94;2910263;80;21055;-79
2022/05/02 06:52:01;;;;;;;13.53;11.30;;;;;;;19.95;52.24;100531.77;2900155;80;21028;-79
2022/05/02 06:56:23;;;;;;;16.57;10.78;;;;;;;19.72;51.40;100536.64;2894512;80;21048;-79
2022/05/02 07:00:26;;;;;;;15.48;11.63;;;;;;;19.49;52.59;100533.93;2899520;80;21028;-79
2022/05/02 07:04:53;;;;;;;15.05;10.93;;;;;;;18.94;53.30;100534.70;2903363;80;21036;-80
2022/05/02 07:09:03;;;;;;;13.85;11.40;;;;;;;18.37;54.62;100538.38;2921603;80;20964;-80
2022/05/02 07:13:46;;;;;;;20.05;12.00;;;;;;;18.26;55.43;100546.31;2918380;80;21034;-80
2022/05/02 07:18:07;;;;;;;16.25;12.53;;;;;;;17.85;57.58;100549.32;2912402;80;21178;-82
2022/05/02 07:22:11;;;;;;;16.17;11.53;;;;;;;17.41;57.98;100541.53;2851231;81;21010;-83
2022/05/02 07:26:18;;;;;;;11.43;10.25;;;;;;;17.35;58.91;100541.68;2849993;81;21566;-81
2022/05/02 07:30:24;;;;;;;12.80;10.35;;;;;;;17.18;59.45;100541.29;2896330;80;21020;-80
2022/05/02 07:34:26;;;;;;;15.45;12.50;;;;;;;17.16;60.46;100541.47;2907567;80;21922;-80
2022/05/02 07:38:32;;;;;;;17.25;13.28;;;;;;;17.08;61.12;100545.45;2916700;80;21892;-80
2022/05/02 07:42:35;;;;;;;13.58;11.50;;;;;;;17.09;60.53;100538.59;2903050;80;21031;-78
2022/05/02 07:46:41;;;;;;;20.15;13.03;;;;;;;17.07;60.19;100545.98;2915050;80;21087;-77
2022/05/02 07:50:44;;;;;;;13.98;12.47;;;;;;;16.86;60.87;100543.66;2902458;80;21086;-78
2022/05/02 07:54:48;;;;;;;18.07;14.15;;;;;;;16.81;63.54;100539.28;2916783;80;20987;-78
2022/05/02 07:58:53;;;;;;;18.00;13.93;;;;;;;16.74;63.25;100541.76;2901535;80;21044;-78
2022/05/02 08:02:54;;;;;;;22.17;13.75;;;;;;;16.68;63.90;100547.78;2856307;80;21162;-78
2022/05/02 08:07:15;;;;;;;17.10;13.13;;;;;;;16.72;63.81;100549.66;2883269;80;21030;-78
2022/05/02 08:11:21;;;;;;;17.45;14.25;;;;;;;16.88;64.59;100548.37;2906876;80;21035;-78
2022/05/02 08:15:49;;;;;;;20.20;14.70;;;;;;;16.98;62.75;100543.75;2901431;80;21040;-78
2022/05/02 08:19:59;;;;;;;16.42;12.82;;;;;;;16.98;62.08;100543.75;2899106;80;22311;-78
2022/05/02 08:28:55;;;;;;;18.40;12.33;;;;;;;17.63;62.09;100539.22;2916164;80;21425;-78
2022/05/02 08:33:08;;;;;;;21.75;13.70;;;;;;;18.01;59.59;100534.19;2859829;80;21028;-78
2022/05/02 08:37:38;;;;;;;17.75;13.55;;;;;;;18.25;58.86;100534.72;2875989;80;21048;-78
2022/05/02 08:42:11;;;;;;;19.27;12.63;;;;;;;18.60;59.25;100534.47;2912235;80;21004;-78
2022/05/02 08:46:52;;;;;;;17.23;14.07;;;;;;;18.73;57.94;100534.45;2901277;80;21090;-78
2022/05/02 08:51:20;;;;;;;18.98;12.68;;;;;;;18.76;58.00;100531.40;2890474;81;21023;-78
2022/05/02 08:55:30;;;;;;;15.75;12.47;;;;;;;19.16;57.76;100528.72;2900280;80;21005;-78
2022/05/02 08:59:49;;;;;;;15.85;13.40;;;;;;;19.21;57.59;100529.05;2901678;80;21345;-78
2022/05/02 09:04:17;;;;;;;14.73;12.13;;;;;;;19.30;55.93;100526.62;2915474;80;21524;-78
2022/05/02 09:08:56;;;;;;;14.45;11.40;;;;;;;19.46;57.33;100523.50;2839311;81;21084;-78
2022/05/02 09:13:48;;;;;;;15.78;12.05;;;;;;;19.45;54.78;100512.38;2882662;80;21070;-78
2022/05/02 09:18:36;;;;;;;20.90;13.75;;;;;;;19.52;56.67;100518.23;2875727;81;21131;-78
2022/05/02 09:23:31;;;;;;;14.45;11.05;;;;;;;19.61;55.14;100516.81;2915433;80;21000;-78
2022/05/02 09:27:50;;;;;;;16.55;12.90;;;;;;;19.62;55.00;100509.91;2911152;80;21067;-78
2022/05/02 09:32:14;;;;;;;16.23;12.10;;;;;;;19.96;55.35;100501.91;2807633;83;21020;-78
2022/05/02 09:36:30;;;;;;;13.48;9.93;;;;;;;20.20;55.29;100494.59;2782020;83;21053;-77
2022/05/02 09:40:36;;;;;;;11.30;9.05;;;;;;;20.46;55.38;100496.52;2805925;82;21367;-78
2022/05/02 09:49:39;;;;;;;11.78;9.80;;;;;;;20.88;53.60;100485.56;2849583;81;21584;-78
2022/05/02 09:53:48;;;;;;;12.95;9.38;;;;;;;21.02;51.42;100484.35;2794870;83;21169;-78
2022/05/02 09:58:29;;;;;;;16.85;11.15;;;;;;;21.08;51.27;100479.55;2783468;85;21023;-78
2022/05/02 10:02:34;;;;;;;12.25;9.05;;;;;;;21.19;50.91;100473.63;2767127;84;21039;-78
2022/05/02 10:06:47;;;;;;;;;;;;;;;21.26;50.63;100465.59;2801830;83;21061;-80
2022/05/02 10:11:09;;;;;;;17.15;9.70;;;;;;;21.34;51.61;100459.22;2808322;82;20106;-79
2022/05/02 10:15:31;;;;;;;12.85;9.55;;;;;;;21.42;49.82;100448.79;2815953;82;21019;-80
2022/05/02 10:20:06;;;;;;;14.23;8.58;;;;;;;21.45;50.33;100450.60;2786205;83;21073;-80
2022/05/02 10:24:24;;;;;;;11.45;8.43;;;;;;;21.54;50.35;100441.30;2769102;82;21109;-80
2022/05/02 10:28:57;;;;;;;14.70;7.83;;;;;;;21.64;47.90;100442.86;2798663;84;21609;-80
2022/05/02 10:33:03;;;;;;;11.33;7.80;;;;;;;21.69;46.58;100430.95;2781916;84;21093;-80
2022/05/02 10:37:09;;;;;;;11.65;8.43;;;;;;;21.71;46.75;100427.53;2825298;82;20998;-80
2022/05/02 10:41:18;;;;;;;9.68;7.97;;;;;;;21.74;47.12;100420.90;2889702;81;21386;-80
2022/05/02 10:45:24;;;;;;;12.93;8.03;;;;;;;21.77;46.55;100413.20;2882014;81;20994;-80
2022/05/02 10:49:43;;;;;;;9.58;6.87;;;;;;;21.90;46.87;100412.98;2842847;81;20991;-80
2022/05/02 10:54:11;;;;;;;7.85;6.80;;;;;;;22.08;45.65;100414.67;2859080;81;20972;-83
2022/05/02 10:58:13;;;;;;;12.88;7.10;;;;;;;22.22;43.53;100403.92;2872492;81;21033;-82
2022/05/02 11:02:29;;;;;;;8.75;6.90;;;;;;;22.21;42.51;100404.96;2857427;81;21070;-85
2022/05/02 11:06:51;;;;;;;;;;;;;;;22.24;44.17;100398.60;2870652;81;21083;-82
2022/05/02 11:11:06;;;;;;;10.82;6.95;;;;;;;22.32;43.36;100396.25;2886982;80;40139;-81
2022/05/02 11:15:24;;;;;;;11.57;8.85;;;;;;;22.37;43.45;100399.18;2866719;82;21065;-81
2022/05/02 11:24:15;;;;;;;7.30;5.72;;;;;;;22.54;42.59;100390.74;2871034;81;21639;-81
2022/05/02 11:28:31;;;;;;;8.88;6.87;;;;;;;22.66;43.57;100378.79;2899902;80;21017;-81
2022/05/02 11:32:59;;;;;;;7.95;6.58;;;;;;;22.78;42.93;100380.38;2870229;80;20992;-81
2022/05/02 11:37:00;;;;;;;10.60;6.55;;;;;;;22.94;42.31;100368.34;2838668;83;21049;-84
2022/05/02 11:41:16;;;;;;;13.60;8.45;;;;;;;23.07;42.22;100370.23;2895649;80;21056;-83
2022/05/02 11:45:18;;;;;;;8.50;6.83;;;;;;;23.22;41.61;100360.03;2922673;80;21005;-84
2022/05/02 11:50:00;;;;;;;9.95;7.12;;;;;;;23.22;40.97;100362.75;2916607;80;20998;-82
2022/05/02 11:54:07;;;;;;;11.85;6.85;;;;;;;23.35;40.03;100359.73;2904739;80;21472;-80
2022/05/02 11:58:38;;;;;;;10.18;6.92;;;;;;;23.47;40.78;100348.57;2879249;80;21026;-81
2022/05/02 12:02:56;;;;;;;10.85;6.33;;;;;;;23.46;40.12;100345.55;2920227;80;21010;-86
2022/05/02 12:07:02;;;;;;;13.10;7.85;;;;;;;23.63;41.67;100341.05;2898845;80;21026;-81
2022/05/02 12:11:12;;;;;;;;;;;;;;;23.65;40.77;100333.52;2859665;81;21028;-83
2022/05/02 12:15:13;;;;;;;9.23;5.55;;;;;;;23.65;41.02;100332.16;2848973;81;20102;-83
2022/05/02 12:19:20;;;;;;;6.12;5.50;;;;;;;23.61;41.47;100324.95;2815200;81;21055;-82
2022/05/02 12:23:26;;;;;;;7.83;6.28;;;;;;;23.73;41.53;100325.14;2874244;81;21058;-82
2022/05/02 12:27:29;;;;;;;10.50;6.53;;;;;;;23.93;41.50;100316.10;2912847;79;21042;-81
2022/05/02 12:31:36;;;;;;;8.53;5.72;;;;;;;24.06;41.84;100312.02;2931109;80;20991;-81
2022/05/02 12:35:40;;;;;;;7.60;5.35;;;;;;;24.14;40.97;100308.23;2934447;80;21002;-87
2022/05/02 12:39:51;;;;;;;9.75;7.15;;;;;;;24.00;40.72;100303.34;2849350;80;20994;-82
2022/05/02 12:44:06;;;;;;;8.55;6.42;;;;;;;23.97;42.06;100303.75;2892157;80;21058;-80
2022/05/02 12:48:12;;;;;;;8.33;5.30;;;;;;;23.86;42.63;100298.45;2929126;80;21125;-79
2022/05/02 12:52:13;;;;;;;8.53;5.55;;;;;;;24.02;41.92;100293.64;2854142;81;21012;-81
2022/05/02 12:56:15;;;;;;;7.50;6.75;;;;;;;24.18;43.44;100284.19;2893356;81;21085;-80
2022/05/02 13:00:31;;;;;;;10.55;6.90;;;;;;;24.23;40.91;100283.83;2941475;80;21034;-79
2022/05/02 13:04:36;;;;;;;9.70;6.33;;;;;;;24.25;39.99;100275.47;2902868;81;21066;-80
2022/05/02 13:08:43;;;;;;;7.40;5.92;;;;;;;24.44;42.01;100272.31;2899795;80;21046;-80
2022/05/02 13:13:02;;;;;;;6.40;5.58;;;;;;;24.39;42.46;100268.91;2919123;80;21014;-82
2022/05/02 13:17:10;;;;;;;5.78;5.28;;;;;;;24.53;42.54;100264.73;2844267;81;21265;-80
2022/05/02 13:21:12;;;;;;;6.47;5.85;;;;;;;24.62;39.48;100259.87;2896574;81;21071;-80
2022/05/02 13:25:15;;;;;;;6.42;5.17;;;;;;;24.77;38.80;100259.61;2889228;79;21010;-80
2022/05/02 13:29:55;;;;;;;6.83;4.80;;;;;;;24.78;42.58;100251.75;2946592;79;21014;-81
2022/05/02 13:34:00;;;;;;;12.68;5.97;;;;;;;24.73;40.00;100252.89;2923209;79;21024;-81
2022/05/02 13:38:10;;;;;;;6.23;4.73;;;;;;;24.63;40.08;100247.42;2875605;81;21070;-88
2022/05/02 13:42:28;;;;;;;8.15;6.03;;;;;;;24.70;41.81;100238.38;2871665;81;21017;-82
2022/05/02 13:47:08;;;;;;;8.18;5.87;;;;;;;24.70;39.97;100231.06;2832362;83;21057;-82
2022/05/02 13:51:32;;;;;;;8.28;6.53;;;;;;;24.72;42.99;100237.63;2788090;82;21578;-82
2022/05/02 13:55:48;;;;;;;9.05;6.65;;;;;;;24.52;40.67;100236.73;2835560;82;20979;-82
2022/05/02 14:00:00;;;;;;;6.60;5.92;;;;;;;24.56;43.05;100237.10;2827989;82;21088;-82
2022/05/02 14:04:17;;;;;;;6.30;5.55;;;;;;;24.75;41.85;100223.09;2809655;84;21543;-82
2022/05/02 14:08:10;;;;;;;7.05;6.35;;;;;;;24.98;42.93;100224.91;2858867;81;21465;-82
2022/05/02 14:12:30;;;;;;;11.00;5.12;;;;;;;25.16;42.90;100216.78;2861149;81;21035;-82
2022/05/02 14:16:38;;;;;;;5.03;4.55;;;;;;;25.37;42.39;100218.77;2857557;81;20972;-82
2022/05/02 14:20:40;;;;;;;8.78;6.35;;;;;;;25.53;42.04;100212.73;2846378;82;21105;-83
2022/05/02 14:24:43;;;;;;;7.75;5.90;;;;;;;25.57;41.18;100209.58;2894600;80;21015;-82
2022/05/02 14:28:52;;;;;;;7.50;5.00;;;;;;;25.44;41.80;100207.27;2894896;80;21034;-81
2022/05/02 14:32:58;;;;;;;7.10;5.20;;;;;;;25.28;40.05;100207.86;2921957;80;21018;-82
2022/05/02 14:36:59;;;;;;;7.15;4.75;;;;;;;24.97;39.93;100197.40;2890723;80;21030;-82
2022/05/02 14:41:03;;;;;;;106.87;20.92;;;;;;;24.72;42.13;100207.70;2924418;80;21022;-81
2022/05/02 14:45:06;;;;;;;6.28;4.37;;;;;;;24.70;42.20;100197.58;2922326;80;21026;-81
2022/05/02 14:49:08;;;;;;;7.95;6.80;;;;;;;24.56;39.78;100193.59;2923998;80;20983;-81
2022/05/02 14:53:13;;;;;;;5.45;4.90;;;;;;;24.36;41.31;100194.58;2923019;80;21058;-81
2022/05/02 14:57:15;;;;;;;7.12;4.87;;;;;;;24.33;42.46;100193.66;2918021;80;21041;-81
2022/05/02 15:01:17;;;;;;;6.17;5.58;;;;;;;24.39;41.99;100180.58;2922251;81;21596;-81
2022/05/02 15:05:21;;;;;;;13.35;6.47;;;;;;;24.55;41.90;100185.14;2931152;80;21010;-80
2022/05/02 15:14:26;;;;;;;6.28;4.58;;;;;;;24.41;41.22;100182.23;2923330;80;21018;-80
2022/05/02 15:23:11;;;;;;;8.00;6.37;;;;;;;24.37;39.72;100170.45;2900413;80;21189;-83
2022/05/02 15:36:46;;;;;;;15.98;5.40;;;;;;;24.51;41.69;100168.45;2898539;80;21079;-81
2022/05/02 15:40:48;;;;;;;7.37;6.58;;;;;;;24.59;40.03;100166.51;2901158;81;20980;-80
2022/05/02 15:44:50;;;;;;;7.42;5.53;;;;;;;24.52;40.49;100165.20;2920708;80;21067;-80
2022/05/02 15:48:57;;;;;;;5.33;4.75;;;;;;;24.30;40.15;100162.85;2855643;82;21066;-80
2022/05/02 15:53:01;;;;;;;8.70;5.37;;;;;;;24.02;43.70;100153.22;2903835;81;21428;-80
2022/05/02 15:57:20;;;;;;;7.08;5.58;;;;;;;23.95;44.60;100153.23;2917642;81;21019;-81
2022/05/02 16:01:54;;;;;;;7.67;6.05;;;;;;;24.02;43.86;100145.08;2913496;79;21019;-81
2022/05/02 16:06:06;;;;;;;6.47;5.12;;;;;;;24.07;42.91;100143.89;2902275;81;21027;-81
2022/05/02 16:14:30;;;;;;;9.08;5.10;;;;;;;24.04;42.75;100132.10;2938346;78;21105;-81
2022/05/02 16:18:35;;;;;;;10.15;5.15;;;;;;;24.04;41.79;100129.38;2936769;81;21415;-81
2022/05/02 16:22:35;;;;;;;8.08;5.87;;;;;;;23.99;43.94;100135.98;2931317;80;21028;-82
2022/05/02 16:26:39;;;;;;;7.08;6.20;;;;;;;23.81;44.47;100129.39;2906789;80;21026;-81
2022/05/02 16:30:43;;;;;;;7.40;5.55;;;;;;;23.53;42.83;100131.91;2895233;80;21024;-85
2022/05/02 16:34:47;;;;;;;16.05;7.15;;;;;;;23.40;45.16;100122.48;2927944;80;21567;-92
2022/05/02 16:38:48;;;;;;;5.85;5.25;;;;;;;23.38;46.76;100125.91;2927864;80;21085;-89
2022/05/02 16:42:53;;;;;;;7.37;5.70;;;;;;;23.32;46.45;100129.50;2871091;81;21023;-89
2022/05/02 16:47:04;;;;;;;7.70;7.00;;;;;;;23.25;47.71;100131.72;2889375;82;21683;-89
2022/05/02 16:51:05;;;;;;;12.75;6.55;;;;;;;23.16;48.14;100126.17;2891333;81;20984;-90
2022/05/02 16:55:08;;;;;;;6.72;5.95;;;;;;;23.02;49.39;100133.52;2880631;80;21055;-92
2022/05/02 16:59:10;;;;;;;9.23;6.37;;;;;;;22.79;48.15;100124.47;2919345;79;21010;-94
2022/05/02 17:03:13;;;;;;;7.55;5.17;;;;;;;22.61;49.56;100129.19;2860230;80;21065;-94
2022/05/02 17:07:15;;;;;;;9.95;6.85;;;;;;;22.44;52.56;100120.09;2905058;80;21051;-90
2022/05/02 17:11:18;;;;;;;6.90;6.22;;;;;;;22.35;50.72;100126.23;2873399;81;21672;-94
2022/05/02 17:15:21;;;;;;;5.65;5.05;;;;;;;22.23;50.37;100121.14;2928309;81;20999;-92
2022/05/02 17:19:26;;;;;;;7.25;6.55;;;;;;;22.15;50.26;100122.17;2913001;80;21016;-90
2022/05/02 17:23:37;;;;;;;7.57;6.73;;;;;;;22.00;50.50;100121.52;2901210;81;21047;-90
2022/05/02 17:27:44;;;;;;;10.60;7.55;;;;;;;21.84;50.55;100120.85;2893226;81;21074;-93
2022/05/02 17:31:53;;;;;;;10.30;7.85;;;;;;;21.57;48.94;100128.87;2881297;81;21079;-88
2022/05/02 17:35:56;;;;;;;12.47;8.13;;;;;;;21.26;49.41;100128.32;2880107;81;20997;-90
2022/05/02 17:44:18;;;;;;;10.93;6.85;;;;;;;20.75;49.22;100139.40;2873874;82;21057;-94
2022/05/02 17:48:25;;;;;;;7.80;6.60;;;;;;;20.48;49.95;100139.20;2885742;81;20981;-88
2022/05/02 17:52:30;;;;;;;10.13;6.70;;;;;;;20.24;50.54;100134.50;2911190;81;21015;-89
2022/05/02 17:56:41;;;;;;;11.00;7.20;;;;;;;20.03;49.69;100131.30;2880297;81;21025;-89
2022/05/02 18:00:43;;;;;;;7.55;6.12;;;;;;;19.84;49.32;100131.68;2892924;81;21028;-91
2022/05/02 18:04:53;;;;;;;9.33;7.10;;;;;;;19.65;49.31;100137.69;2861550;81;21034;-87
2022/05/02 18:09:04;;;;;;;14.18;8.23;;;;;;;19.48;49.54;100137.92;2910469;81;21074;-87
2022/05/02 18:13:11;;;;;;;16.62;7.85;;;;;;;19.35;49.79;100137.22;2872705;81;21038;-85
2022/05/02 18:17:21;;;;;;;19.42;9.33;;;;;;;19.22;50.93;100140.58;2815874;84;21564;-90
2022/05/02 18:21:25;;;;;;;29.87;10.55;;;;;;;19.05;52.28;100141.78;2901425;82;21579;-89
2022/05/02 18:25:39;;;;;;;164.52;30.92;;;;;;;18.90;53.24;100144.44;2877448;81;21030;-82
2022/05/02 18:29:44;;;;;;;99.83;23.00;;;;;;;18.68;54.16;100143.82;2896819;82;20987;-86
2022/05/02 18:33:55;;;;;;;30.12;12.40;;;;;;;18.44;54.80;100146.70;2895945;82;21036;-88
2022/05/02 18:38:10;;;;;;;36.40;17.85;;;;;;;18.22;54.95;100149.23;2901439;81;21142;-84
2022/05/02 18:42:14;;;;;;;35.30;18.05;;;;;;;18.03;56.53;100153.25;2888302;82;21064;-85
2022/05/02 18:55:14;;;;;;;18.77;11.28;;;;;;;17.45;58.13;100171.81;2897018;82;21033;-90
2022/05/02 18:59:16;;;;;;;47.23;32.30;;;;;;;17.15;60.52;100174.77;2900324;82;21068;-86
2022/05/02 19:03:18;;;;;;;71.75;45.67;;;;;;;16.90;60.91;100181.02;2866309;82;21032;-84
2022/05/02 19:07:22;;;;;;;80.38;41.18;;;;;;;16.71;62.29;100183.53;2856685;81;21011;-85
2022/05/02 19:11:25;;;;;;;47.40;31.25;;;;;;;16.54;61.97;100178.67;2826923;82;21029;-84
2022/05/02 19:15:31;;;;;;;114.47;63.30;;;;;;;16.44;61.72;100179.33;2884908;81;21028;-85
2022/05/02 19:19:32;;;;;;;101.12;47.20;;;;;;;16.37;61.21;100177.33;2892686;81;21151;-81
2022/05/02 19:24:30;;;;;;;110.80;52.83;;;;;;;16.28;61.50;100172.94;2875273;81;21036;-84
2022/05/02 19:28:32;;;;;;;60.85;37.00;;;;;;;16.16;62.03;100171.08;2897550;81;21012;-83
2022/05/02 19:32:47;;;;;;;54.08;35.65;;;;;;;16.04;62.05;100173.76;2886190;82;21119;-85
2022/05/02 19:41:23;;;;;;;48.50;29.90;;;;;;;15.81;63.22;100176.51;2873248;82;21606;-82
2022/05/02 19:45:30;;;;;;;52.85;27.90;;;;;;;15.69;63.29;100181.81;2894816;82;21654;-85
2022/05/02 19:49:37;;;;;;;43.87;24.37;;;;;;;15.55;63.83;100177.42;2877522;82;21076;-84
2022/05/02 19:53:39;;;;;;;55.65;37.38;;;;;;;15.41;64.55;100174.83;2875788;82;21060;-86
2022/05/02 19:57:44;;;;;;;82.65;49.23;;;;;;;15.26;65.89;100177.79;2891494;82;21054;-81
2022/05/02 20:01:45;;;;;;;183.12;99.70;;;;;;;15.16;66.27;100173.88;2872930;82;21064;-84
2022/05/02 20:05:46;;;;;;;134.63;78.37;;;;;;;15.08;66.52;100175.16;2850705;82;21078;-81
2022/05/02 20:09:48;;;;;;;115.12;67.03;;;;;;;15.00;66.73;100174.61;2868245;82;20984;-80
2022/05/02 20:13:53;;;;;;;135.57;81.28;;;;;;;14.90;66.65;100174.70;2890931;82;21043;-80
2022/05/02 20:17:52;;;;;;;80.60;48.65;;;;;;;14.81;67.73;100177.00;2897708;82;20996;-80